createdAt,value
2023-04-07T00:02:08.968Z,9.10
2023-04-07T00:07:07.537Z,8.70
2023-04-07T00:12:06.103Z,6.40
2023-04-07T00:17:06.036Z,7.83
2023-04-07T00:22:04.948Z,6.90
2023-04-07T00:27:03.570Z,6.57
2023-04-07T00:32:02.042Z,8.00
2023-04-07T00:37:01.856Z,6.30
2023-04-07T00:42:00.348Z,7.27
2023-04-07T00:46:58.848Z,7.33
2023-04-07T00:51:58.653Z,6.90
2023-04-07T00:56:59.096Z,5.83
2023-04-07T01:02:04.491Z,7.83
2023-04-07T01:07:06.980Z,8.63
2023-04-07T01:12:22.727Z,6.27
2023-04-07T01:17:23.940Z,8.97
2023-04-07T01:22:28.058Z,9.00
2023-04-07T01:27:38.168Z,9.40
2023-04-07T01:32:41.072Z,6.50
2023-04-07T01:44:35.606Z,9.10
2023-04-07T01:49:36.922Z,8.43
2023-04-07T01:54:35.891Z,8.23
2023-04-07T01:59:34.281Z,7.83
2023-04-07T02:04:41.564Z,6.77
2023-04-07T02:09:41.754Z,6.20
2023-04-07T02:14:41.377Z,7.63
2023-04-07T02:19:45.548Z,5.10
2023-04-07T02:24:44.065Z,6.83
2023-04-07T02:29:42.590Z,5.97
2023-04-07T02:34:40.631Z,7.40
2023-04-07T02:39:40.856Z,6.30
2023-04-07T02:44:39.202Z,5.93
2023-04-07T02:49:37.263Z,6.60
2023-04-07T02:54:37.936Z,7.63
2023-04-07T02:59:37.865Z,6.70
2023-04-07T03:04:36.569Z,6.53
2023-04-07T03:09:35.717Z,4.80
2023-04-07T03:14:34.213Z,5.80
2023-04-07T03:19:34.711Z,6.53
2023-04-07T03:24:33.372Z,6.50
2023-04-07T03:29:34.121Z,6.30
2023-04-07T03:34:37.363Z,5.07
2023-04-07T03:39:37.683Z,5.43
2023-04-07T03:44:46.683Z,6.20
2023-04-07T03:49:46.729Z,5.70
2023-04-07T03:54:45.018Z,6.13
2023-04-07T03:59:43.620Z,5.97
2023-04-07T04:04:42.167Z,6.27
2023-04-07T04:09:43.867Z,4.60
2023-04-07T04:14:43.774Z,4.33
2023-04-07T04:19:44.028Z,5.20
2023-04-07T04:24:51.688Z,6.10
2023-04-07T04:29:50.461Z,5.87
2023-04-07T04:34:55.839Z,6.07
2023-04-07T04:39:56.404Z,6.33
2023-04-07T04:44:56.796Z,5.67
2023-04-07T04:49:56.644Z,6.27
2023-04-07T04:54:57.287Z,6.10
2023-04-07T04:59:57.640Z,5.70
2023-04-07T05:04:56.303Z,6.17
2023-04-07T05:10:00.394Z,6.13
2023-04-07T05:14:59.153Z,5.30
2023-04-07T05:19:57.804Z,5.27
2023-04-07T05:25:08.770Z,6.30
2023-04-07T05:30:09.316Z,5.20
2023-04-07T05:35:08.868Z,6.00
2023-04-07T05:40:15.840Z,4.10
2023-04-07T05:45:16.342Z,6.63
2023-04-07T05:50:20.300Z,5.50
2023-04-07T05:55:22.311Z,5.87
2023-04-07T06:00:22.320Z,6.67
2023-04-07T06:05:31.281Z,4.63
2023-04-07T06:10:32.209Z,5.93
2023-04-07T06:15:30.741Z,6.23
2023-04-07T06:20:29.233Z,4.03
2023-04-07T06:25:30.453Z,5.53
2023-04-07T06:30:28.672Z,3.77
2023-04-07T06:35:28.812Z,5.93
2023-04-07T06:40:27.278Z,5.73
2023-04-07T06:45:27.134Z,5.40
2023-04-07T06:50:25.906Z,5.10
2023-04-07T06:55:24.072Z,5.53
2023-04-07T07:00:23.321Z,5.73
2023-04-07T07:05:23.504Z,7.37
2023-04-07T07:10:23.127Z,5.40
2023-04-07T07:15:21.574Z,6.40
2023-04-07T07:20:20.291Z,5.60
2023-04-07T07:25:20.177Z,7.40
2023-04-07T07:30:18.363Z,4.80
2023-04-07T07:35:17.587Z,4.10
2023-04-07T07:40:16.240Z,5.20
2023-04-07T07:52:05.440Z,5.00
2023-04-07T07:57:04.846Z,5.10
2023-04-07T08:02:03.365Z,3.23
2023-04-07T08:07:01.518Z,4.80
2023-04-07T08:12:02.601Z,5.37
2023-04-07T08:17:01.189Z,4.50
2023-04-07T08:21:59.309Z,5.47
2023-04-07T08:26:57.580Z,5.40
2023-04-07T08:31:57.119Z,4.50
2023-04-07T08:36:55.944Z,5.13
2023-04-07T08:41:56.314Z,2.93
2023-04-07T08:46:59.119Z,6.00
2023-04-07T08:52:00.894Z,5.27
2023-04-07T08:56:59.160Z,4.80
2023-04-07T09:01:58.996Z,3.30
2023-04-07T09:06:57.124Z,4.37
2023-04-07T09:11:55.782Z,4.90
2023-04-07T09:16:55.990Z,4.07
2023-04-07T09:21:55.988Z,3.30
2023-04-07T09:27:11.147Z,3.37
2023-04-07T09:32:09.787Z,5.07
2023-04-07T09:37:10.702Z,4.87
2023-04-07T09:42:09.357Z,5.90
2023-04-07T09:47:07.545Z,5.60
2023-04-07T09:52:08.023Z,3.60
2023-04-07T09:57:09.321Z,3.97
2023-04-07T10:02:09.219Z,4.17
2023-04-07T10:07:08.145Z,4.00
2023-04-07T10:12:08.701Z,5.77
2023-04-07T10:17:07.776Z,5.20
2023-04-07T10:22:08.169Z,4.63
2023-04-07T10:27:12.547Z,4.60
2023-04-07T10:32:11.082Z,4.70
2023-04-07T10:37:11.510Z,6.40
2023-04-07T10:42:52.357Z,6.40
2023-04-07T10:48:12.000Z,5.40
2023-04-07T10:53:12.535Z,5.40
2023-04-07T10:58:25.768Z,6.23
2023-04-07T11:03:24.540Z,4.37
2023-04-07T11:08:35.902Z,6.00
2023-04-07T11:13:42.546Z,6.63
2023-04-07T11:18:42.205Z,5.60
2023-04-07T11:23:41.376Z,4.40
2023-04-07T11:28:48.819Z,5.20
2023-04-07T11:33:55.014Z,6.00
2023-04-07T11:38:53.633Z,5.20
2023-04-07T11:44:05.923Z,6.20
2023-04-07T11:49:13.043Z,5.40
2023-04-07T11:54:12.173Z,5.60
2023-04-07T11:59:23.717Z,5.20
2023-04-07T12:04:22.414Z,3.90
2023-04-07T12:09:29.414Z,4.90
2023-04-07T12:14:29.664Z,3.47
2023-04-07T12:19:29.195Z,5.07
2023-04-07T12:24:27.423Z,4.63
2023-04-07T12:29:25.583Z,4.00
2023-04-07T12:34:25.456Z,3.87
2023-04-07T12:39:23.992Z,4.03
2023-04-07T12:44:22.497Z,4.80
2023-04-07T12:49:20.951Z,3.70
2023-04-07T12:54:20.414Z,3.77
2023-04-07T12:59:19.195Z,4.13
2023-04-07T13:04:18.263Z,3.90
2023-04-07T13:09:16.483Z,3.67
2023-04-07T13:14:16.638Z,4.30
2023-04-07T13:19:15.150Z,4.00
2023-04-07T13:24:13.249Z,3.60
2023-04-07T13:29:12.048Z,2.90
2023-04-07T13:34:12.100Z,4.20
2023-04-07T13:39:10.415Z,3.40
2023-04-07T13:44:09.196Z,2.70
2023-04-07T13:49:07.843Z,2.63
2023-04-07T13:54:07.891Z,2.20
2023-04-07T13:59:06.745Z,2.30
2023-04-07T14:04:05.370Z,2.30
2023-04-07T14:09:03.942Z,1.60
2023-04-07T14:14:03.428Z,1.77
2023-04-07T14:19:02.241Z,1.37
2023-04-07T14:24:01.487Z,2.10
2023-04-07T14:28:59.576Z,1.80
2023-04-07T14:33:59.696Z,1.70
2023-04-07T14:38:58.706Z,1.90
2023-04-07T14:43:56.833Z,1.87
2023-04-07T14:48:55.320Z,2.30
2023-04-07T14:53:56.375Z,2.10
2023-04-07T14:58:54.476Z,2.00
2023-04-07T15:03:54.060Z,2.77
2023-04-07T15:08:54.086Z,2.10
2023-04-07T15:13:52.176Z,2.47
2023-04-07T15:18:51.410Z,2.40
2023-04-07T15:23:49.705Z,1.93
2023-04-07T15:28:49.671Z,2.50
2023-04-07T15:33:48.478Z,2.57
2023-04-07T15:38:47.679Z,1.97
2023-04-07T15:43:46.577Z,2.43
2023-04-07T15:48:48.462Z,1.90
2023-04-07T15:53:46.692Z,2.90
2023-04-07T15:58:46.482Z,2.23
2023-04-07T16:03:46.433Z,3.30
2023-04-07T16:08:44.627Z,2.83
2023-04-07T16:13:43.079Z,2.63
2023-04-07T16:18:41.207Z,3.57
2023-04-07T16:23:41.154Z,3.60
2023-04-07T16:28:42.241Z,4.17
2023-04-07T16:33:40.554Z,4.17
2023-04-07T16:38:40.411Z,3.20
2023-04-07T16:43:38.919Z,3.37
2023-04-07T16:48:37.124Z,3.40
2023-04-07T16:53:35.217Z,3.57
2023-04-07T16:58:35.352Z,3.47
2023-04-07T17:03:34.008Z,3.37
2023-04-07T17:08:32.320Z,3.30
2023-04-07T17:13:31.315Z,3.30
2023-04-07T17:18:31.548Z,3.20
2023-04-07T17:23:29.678Z,3.70
2023-04-07T17:28:30.246Z,3.80
2023-04-07T17:34:18.771Z,3.27
2023-04-07T17:39:18.340Z,4.20
2023-04-07T17:44:16.495Z,4.50
2023-04-07T17:49:14.663Z,4.90
2023-04-07T17:54:12.766Z,4.40
2023-04-07T17:59:12.887Z,4.67
2023-04-07T18:04:11.473Z,5.17
2023-04-07T18:09:10.227Z,3.77
2023-04-07T18:14:09.035Z,4.70
2023-04-07T18:19:08.770Z,4.77
2023-04-07T18:24:06.841Z,3.83
2023-04-07T18:29:10.064Z,4.33
2023-04-07T18:34:10.165Z,4.30
2023-04-07T18:39:08.552Z,3.90
2023-04-07T18:44:07.737Z,3.63
2023-04-07T18:49:06.118Z,4.30
2023-04-07T18:54:05.618Z,3.77
2023-04-07T18:59:04.358Z,4.40
2023-04-07T19:04:03.334Z,4.20
2023-04-07T19:09:01.843Z,4.40
2023-04-07T19:14:01.792Z,3.80
2023-04-07T19:18:59.869Z,4.00
2023-04-07T19:23:59.773Z,4.30
2023-04-07T19:28:58.496Z,5.13
2023-04-07T19:33:58.873Z,5.17
2023-04-07T19:38:57.210Z,3.83
2023-04-07T19:43:55.315Z,4.40
2023-04-07T19:48:53.983Z,4.60
2023-04-07T19:53:53.761Z,4.80
2023-04-07T19:58:52.229Z,4.90
2023-04-07T20:03:50.670Z,6.00
2023-04-07T20:08:49.153Z,6.50
2023-04-07T20:13:49.354Z,6.57
2023-04-07T20:18:48.464Z,6.03
2023-04-07T20:23:47.090Z,5.90
2023-04-07T20:28:45.722Z,6.67
2023-04-07T20:33:45.494Z,5.83
2023-04-07T20:38:44.948Z,6.40
2023-04-07T20:43:43.499Z,6.13
2023-04-07T20:48:41.923Z,5.77
2023-04-07T20:53:41.624Z,5.93
2023-04-07T20:58:40.132Z,6.27
2023-04-07T21:03:38.860Z,5.80
2023-04-07T21:08:36.984Z,6.50
2023-04-07T21:13:37.033Z,8.20
2023-04-07T21:18:36.021Z,6.63
2023-04-07T21:23:34.435Z,7.50
2023-04-07T21:28:32.877Z,7.27
2023-04-07T21:33:32.925Z,7.33
2023-04-07T21:38:31.864Z,7.00
2023-04-07T21:43:29.978Z,7.47
2023-04-07T21:48:29.577Z,8.23
2023-04-07T21:53:29.400Z,8.30
2023-04-07T21:58:27.890Z,8.47
2023-04-07T22:03:26.563Z,8.80
2023-04-07T22:08:24.767Z,8.50
2023-04-07T22:13:24.988Z,7.07
2023-04-07T22:18:23.478Z,7.87
2023-04-07T22:23:21.919Z,7.73
2023-04-07T22:28:20.346Z,8.57
2023-04-07T22:33:19.792Z,9.33
2023-04-07T22:38:18.613Z,9.30
2023-04-07T22:43:17.248Z,9.17
2023-04-07T22:48:15.924Z,9.27
2023-04-07T22:53:15.711Z,9.87
2023-04-07T22:58:14.299Z,9.93
2023-04-07T23:03:12.495Z,10.77
2023-04-07T23:08:11.543Z,9.80
2023-04-07T23:13:11.414Z,7.97
2023-04-07T23:18:09.914Z,7.87
2023-04-07T23:23:08.400Z,9.20
2023-04-07T23:28:06.861Z,8.73
2023-04-07T23:33:06.998Z,10.77
2023-04-07T23:38:05.526Z,10.70
2023-04-07T23:43:04.045Z,10.43
2023-04-07T23:48:02.521Z,9.93
2023-04-07T23:53:03.281Z,9.17
2023-04-07T23:58:01.500Z,10.77
